Terminal Aerodrome Forecast
Issued by NWS

Home | Current Version | Previous Version | Text Only | Print | Product List | Glossary On
Versions: 1 2 3 4 5 6 7 8 9 10 11 12 13 14 15 16 17 18 19
603
FTUS44 KEWX 250959 AAA
TAFSSF
TAF AMD
KSSF 250959Z 2510/2606 VRB03KT P6SM SCT012
     FM251100 VRB03KT P6SM BKN012
     FM251400 17005KT P6SM SCT040 SCT100
     FM251800 13008KT P6SM BKN050 BKN100
     FM252300 10010KT P6SM VCTS BKN050CB
     FM260300 13005KT P6SM BKN100=

USA.gov is the U.S. government's official web portal to all federal, state and local government web resources and services.